Kettle Falls, WA (99141)

9:53 PM PDT on March 29, 2015 (GMT -0700)
Colville Mountain | | Change Station
CLOSE
Current Station
Personal Weather Station
Location: Colville, WA
Elevation: 1800 ft
Nearby Weather Stations

Elev 1800 ft 48.55 °N, 117.90 °W | Updated 12 seconds ago

Mostly Cloudy
Mostly Cloudy
53.2 °F
Feels Like 53.2 °F
N
0.0
Wind Variable Wind from ESE
Gusts 1.0 mph

Today
High -- | Low -- °F
--% Chance of Precip.
Yesterday
High -- | Low -- °F
Precip. -- in
6:36 AM 7:18 PM
Waxing Gibbous, 77% visible
Pressure 30.15 in
Visibility 10.0 miles
Clouds Clear
Dew Point 40 °F
Humidity 60%
Rainfall 0.00 in
Snow Depth Not available.
UV 0 out of 12
Pollen 8.40 out of 12
Air Quality Not available.
Flu Activity Not available.
METAR KDEW 300353Z AUTO 00000KT 10SM CLR 08/04 A3013 RMK AO2 SLP209 T00780039

More Conditions Fewer Conditions

Pressure 30.15 in
Visibility 10.0 miles
Clouds Clear
Dew Point 40 °F
Humidity 60%
Rainfall 0.00 in
Snow Depth Not available.
UV 0 out of 12
Pollen 8.40 out of 12
Air Quality Not available.
Flu Activity Not available.
METAR KDEW 300353Z AUTO 00000KT 10SM CLR 08/04 A3013 RMK AO2 SLP209 T00780039

More Conditions Fewer Conditions

10-Day Weather Forecast

Almanac

Astronomy

Mar. 29, 2015 Rise Set
Actual Time
Civil Twilight
Nautical Twilight
Astronomical Twilight
Moon
Length of Visible Light
Length of Day
Tomorrow will be .
, % of the Moon is Illuminated

Today's Extremes

State Highs State Lows

Community

WunderPhotos

Upload Photos

1,809,436 photos uploaded!

WunderBlogs® & News

Nearby

Air Quality

  Air Quality AQ Index Pollutant
Not available.

Snow Depth

Station Depth Elevation

Earthquake Activity

City Distance Mag. Time & Date
Minimum magnitude displayed is 2.5.

Coastal Water Temperatures

Place Temperature

Stations

Nearby Weather Stations

Station Location Temp. Windchill Dew Point Humidity Wind Precip. Elev Updated Type